Terminal Aerodrome Forecast
Issued by NWS

Home | Current Version | Previous Version | Text Only | Print | Product List | Glossary On
Versions: 1 2 3 4 5 6 7 8 9 10 11 12 13 14 15
000
FTUS43 KAPX 191100
TAFTVC
TAF
KTVC 191120Z 1912/2012 16004KT P6SM BKN070
     FM191500 19010KT P6SM BKN250
     FM192000 18011G21KT P6SM BKN250
     FM200100 17012KT P6SM OVC150 WS007/19030KT
     FM200500 18012KT 6SM -SHRA OVC060 WS007/20035KT=

USA.gov is the U.S. government's official web portal to all federal, state and local government web resources and services.